首页
METAR-TAF:

METAR-TAF

机场 :

Bad Vöslau

巴特弗斯勞, 奥地利

纬度: 47-57-52N, 经度: 016-15-34E, 海拔: 233米

当前天气观测

该预报发布于1小时和1分钟前的15:00 UTC
风速4节,风向
温度 2°C
湿度 80%
气压

METAR: LOAV 131500Z 35004KT 15KM FEW030CU SCT080AC BKN300CI 02/M01

时间: 17:01 (16:01 UTC)

预报

该预报发布于1小时和52分钟前的14:09 UTC
预报有效从13日的 14点(UTC)到 13日的 21点(UTC)
风速12节,风向南转南东
能见度10公里或以上
少量云层高于1000英尺
散云层高于3000英尺
多云层高于30000英尺
成为
从 13日的 14点(UTC)到 13日的 16点(UTC)
风速2节,风向多变
能見度: 6000
少量云层高于500英尺
多云层高于4000英尺
小雨

TAF: LOAV 131409Z 1314/1321 16012KT 9999 FEW010 SCT030 BKN300 BECMG 1314/1316 VRB02KT 6000 -RA FEW005 BKN040

超过4000个机场的气象观测和天气预报(METAR&TAF报告)。

可查询的气象台以黄色和红色小点在地图上表示。

将鼠标移到小点上方,可查看气象台名称。

然后点击查看天气观测和预报。

如需切换地图:点击带黑十字的绿色按钮放大地图;点击带横线的绿色按钮缩小地图;或者点击绿色箭头查看邻近地区的地图。


METAR-TAF: